createdAt,value
2023-05-26T00:00:12.266Z,102035.00
2023-05-26T00:05:14.649Z,102033.97
2023-05-26T00:10:16.257Z,102029.03
2023-05-26T00:15:18.018Z,102038.72
2023-05-26T00:20:19.776Z,102044.00
2023-05-26T00:25:21.455Z,102047.94
2023-05-26T00:30:23.050Z,102044.72
2023-05-26T00:35:24.691Z,102040.50
2023-05-26T00:40:26.447Z,102033.13
2023-05-26T00:45:28.044Z,102035.56
2023-05-26T00:50:29.880Z,102034.22
2023-05-26T00:55:32.327Z,102036.22
2023-05-26T01:00:34.690Z,102035.66
2023-05-26T01:05:36.278Z,102050.91
2023-05-26T01:10:37.892Z,102037.16
2023-05-26T01:15:57.478Z,102032.22
2023-05-26T01:21:11.719Z,102041.38
2023-05-26T01:26:50.737Z,102042.97
2023-05-26T01:31:52.403Z,102050.22
2023-05-26T01:36:54.005Z,102037.84
2023-05-26T01:42:19.802Z,102046.84
2023-05-26T01:47:33.288Z,102052.75
2023-05-26T01:52:38.509Z,102055.66
2023-05-26T01:57:43.996Z,102062.72
2023-05-26T02:02:46.418Z,102072.63
2023-05-26T02:07:48.135Z,102071.31
2023-05-26T02:12:49.852Z,102076.16
2023-05-26T02:17:51.463Z,102068.91
2023-05-26T02:22:53.391Z,102070.34
2023-05-26T02:27:55.033Z,102063.41
2023-05-26T02:32:56.688Z,102062.38
2023-05-26T02:37:58.374Z,102063.72
2023-05-26T02:43:00.926Z,102056.28
2023-05-26T02:48:02.497Z,102059.69
2023-05-26T02:53:06.133Z,102059.53
2023-05-26T02:58:07.793Z,102055.84
2023-05-26T03:03:10.110Z,102055.03
2023-05-26T03:08:11.759Z,102053.72
2023-05-26T03:13:13.504Z,102057.09
2023-05-26T03:18:15.365Z,102057.16
2023-05-26T03:23:18.689Z,102054.72
2023-05-26T03:28:20.360Z,102061.50
2023-05-26T03:33:21.926Z,102054.94
2023-05-26T03:38:23.639Z,102056.03
2023-05-26T03:43:25.329Z,102054.97
2023-05-26T03:48:27.757Z,102059.63
2023-05-26T03:53:30.336Z,102061.28
2023-05-26T03:58:32.617Z,102068.25
2023-05-26T04:03:34.488Z,102069.53
2023-05-26T04:08:36.548Z,102069.03
2023-05-26T04:13:38.602Z,102068.22
2023-05-26T04:18:40.929Z,102070.75
2023-05-26T04:23:42.697Z,102075.09
2023-05-26T04:28:44.406Z,102080.13
2023-05-26T04:34:15.242Z,102083.91
2023-05-26T04:39:31.904Z,102082.78
2023-05-26T04:44:33.545Z,102081.34
2023-05-26T04:49:36.941Z,102084.53
2023-05-26T04:54:39.011Z,102096.19
2023-05-26T04:59:40.943Z,102099.38
2023-05-26T05:04:42.616Z,102109.00
2023-05-26T05:09:44.358Z,102113.25
2023-05-26T05:14:46.087Z,102113.94
2023-05-26T05:19:49.599Z,102123.81
2023-05-26T05:24:56.199Z,102130.50
2023-05-26T05:29:57.837Z,102139.63
2023-05-26T05:35:01.762Z,102139.81
2023-05-26T05:40:05.531Z,102155.91
2023-05-26T05:45:07.722Z,102158.53
2023-05-26T05:50:41.353Z,102162.81
2023-05-26T05:55:43.096Z,102163.34
2023-05-26T06:00:45.121Z,102168.56
2023-05-26T06:05:47.165Z,102180.31
2023-05-26T06:10:49.183Z,102175.81
2023-05-26T06:15:50.952Z,102183.22
2023-05-26T06:20:54.622Z,102187.41
2023-05-26T06:25:56.631Z,102183.53
2023-05-26T06:30:58.626Z,102181.75
2023-05-26T06:36:23.716Z,102185.44
2023-05-26T06:41:26.681Z,102190.63
2023-05-26T06:46:29.690Z,102189.75
2023-05-26T06:51:31.340Z,102190.53
2023-05-26T06:56:33.364Z,102195.22
2023-05-26T07:01:35.829Z,102196.09
2023-05-26T07:06:46.727Z,102196.44
2023-05-26T07:11:50.375Z,102204.69
2023-05-26T07:17:12.092Z,102205.91
2023-05-26T07:22:15.200Z,102202.56
2023-05-26T07:27:33.624Z,102204.06
2023-05-26T07:32:35.519Z,102206.63
2023-05-26T07:37:37.353Z,102203.00
2023-05-26T07:42:38.968Z,102194.00
2023-05-26T07:47:40.574Z,102197.34
2023-05-26T07:52:42.311Z,102194.84
2023-05-26T07:57:43.901Z,102198.44
2023-05-26T08:02:45.615Z,102205.56
2023-05-26T08:07:47.340Z,102205.16
2023-05-26T08:12:49.106Z,102204.44
2023-05-26T08:17:50.961Z,102210.31
2023-05-26T08:22:52.623Z,102201.13
2023-05-26T08:27:54.547Z,102199.38
2023-05-26T08:32:56.229Z,102195.25
2023-05-26T08:37:57.879Z,102200.56
2023-05-26T08:43:03.873Z,102192.91
2023-05-26T08:48:09.251Z,102184.00
2023-05-26T08:53:10.882Z,102182.72
2023-05-26T08:58:14.689Z,102192.38
2023-05-26T09:03:16.405Z,102185.53
2023-05-26T09:08:18.100Z,102182.25
2023-05-26T09:13:19.921Z,102186.81
2023-05-26T09:18:21.610Z,102193.28
2023-05-26T09:23:23.309Z,102199.47
2023-05-26T09:28:24.921Z,102203.41
2023-05-26T09:33:26.528Z,102201.06
2023-05-26T09:38:28.162Z,102202.75
2023-05-26T09:43:34.078Z,102198.25
2023-05-26T09:48:36.027Z,102188.09
2023-05-26T09:53:37.586Z,102181.28
2023-05-26T09:58:40.612Z,102184.50
2023-05-26T10:03:42.365Z,102179.31
2023-05-26T10:08:46.579Z,102188.03
2023-05-26T10:13:48.388Z,102183.00
2023-05-26T10:18:50.836Z,102183.59
2023-05-26T10:24:02.940Z,102188.09
2023-05-26T10:29:07.801Z,102170.97
2023-05-26T10:34:14.037Z,102177.88
2023-05-26T10:39:19.099Z,102165.63
2023-05-26T10:44:40.928Z,102165.53
2023-05-26T10:49:51.883Z,102152.91
2023-05-26T10:54:53.672Z,102156.53
2023-05-26T10:59:55.241Z,102147.41
2023-05-26T11:04:56.902Z,102148.16
2023-05-26T11:10:05.588Z,102149.91
2023-05-26T11:15:29.252Z,102151.28
2023-05-26T11:20:30.958Z,102145.56
2023-05-26T11:25:44.528Z,102141.25
2023-05-26T11:30:46.091Z,102129.97
2023-05-26T11:35:47.669Z,102134.03
2023-05-26T11:40:49.788Z,102118.56
2023-05-26T11:45:54.875Z,102123.28
2023-05-26T11:50:56.753Z,102113.63
2023-05-26T11:56:38.495Z,102125.03
2023-05-26T12:01:40.146Z,102113.59
2023-05-26T12:06:43.708Z,102123.84
2023-05-26T12:11:47.406Z,102113.81
2023-05-26T12:16:50.488Z,102114.38
2023-05-26T12:21:54.608Z,102115.78
2023-05-26T12:26:56.333Z,102114.69
2023-05-26T12:31:58.194Z,102112.38
2023-05-26T12:36:59.940Z,102107.91
2023-05-26T12:42:01.606Z,102102.28
2023-05-26T12:47:03.228Z,102091.84
2023-05-26T12:52:04.914Z,102097.84
2023-05-26T12:57:06.487Z,102090.09
2023-05-26T13:02:08.607Z,102086.22
2023-05-26T13:07:10.344Z,102092.56
2023-05-26T13:12:12.019Z,102090.34
2023-05-26T13:17:13.596Z,102082.94
2023-05-26T13:22:15.212Z,102070.91
2023-05-26T13:27:16.777Z,102076.09
2023-05-26T13:32:18.401Z,102059.69
2023-05-26T13:37:20.036Z,102065.50
2023-05-26T13:42:21.743Z,102061.09
2023-05-26T13:47:26.145Z,102052.16
2023-05-26T13:52:28.415Z,102054.59
2023-05-26T13:57:30.770Z,102046.41
2023-05-26T14:02:33.238Z,102046.56
2023-05-26T14:07:35.052Z,102046.91
2023-05-26T14:12:36.682Z,102045.09
2023-05-26T14:17:39.068Z,102042.47
2023-05-26T14:22:41.261Z,102045.72
2023-05-26T14:27:43.236Z,102053.00
2023-05-26T14:32:46.402Z,102039.53
2023-05-26T14:37:50.163Z,102030.47
2023-05-26T14:42:51.747Z,102037.63
2023-05-26T14:47:53.899Z,102041.16
2023-05-26T14:52:55.545Z,102040.88
2023-05-26T14:57:57.105Z,102042.38
2023-05-26T15:02:58.754Z,102036.59
2023-05-26T15:08:01.476Z,102047.09
2023-05-26T15:13:03.182Z,102039.56
2023-05-26T15:18:05.897Z,102044.50
2023-05-26T15:23:07.904Z,102037.06
2023-05-26T15:28:09.643Z,102042.31
2023-05-26T15:33:11.276Z,102038.31
2023-05-26T15:38:12.905Z,102034.69
2023-05-26T15:43:14.858Z,102025.97
2023-05-26T15:48:17.883Z,102037.34
2023-05-26T15:53:19.541Z,102027.69
2023-05-26T15:58:21.218Z,102031.91
2023-05-26T16:03:22.909Z,102022.28
2023-05-26T16:08:24.525Z,102032.31
2023-05-26T16:13:26.076Z,102029.09
2023-05-26T16:18:27.666Z,102037.50
2023-05-26T16:23:29.480Z,102034.88
2023-05-26T16:28:31.729Z,102029.28
2023-05-26T16:33:33.335Z,102036.78
2023-05-26T16:38:34.968Z,102024.13
2023-05-26T16:43:47.902Z,102033.72
2023-05-26T16:48:50.315Z,102031.78
2023-05-26T16:53:51.875Z,102032.19
2023-05-26T16:58:53.481Z,102035.50
2023-05-26T17:03:55.052Z,102024.31
2023-05-26T17:08:56.792Z,102029.25
2023-05-26T17:13:58.389Z,102035.69
2023-05-26T17:18:59.947Z,102031.06
2023-05-26T17:24:01.641Z,102031.75
2023-05-26T17:29:03.220Z,102038.38
2023-05-26T17:34:04.859Z,102035.69
2023-05-26T17:39:06.985Z,102034.69
2023-05-26T17:44:10.666Z,102028.22
2023-05-26T17:49:13.763Z,102030.19
2023-05-26T17:54:15.297Z,102026.16
2023-05-26T17:59:16.876Z,102032.50
2023-05-26T18:04:18.619Z,102032.47
2023-05-26T18:09:20.269Z,102038.47
2023-05-26T18:14:21.879Z,102034.78
2023-05-26T18:19:23.459Z,102042.41
2023-05-26T18:24:25.135Z,102046.88
2023-05-26T18:29:26.709Z,102045.78
2023-05-26T18:34:28.301Z,102049.16
2023-05-26T18:39:30.290Z,102048.78
2023-05-26T18:44:31.831Z,102051.00
2023-05-26T18:49:33.542Z,102048.81
2023-05-26T18:54:35.118Z,102038.66
2023-05-26T18:59:36.662Z,102048.06
2023-05-26T19:04:38.523Z,102049.72
2023-05-26T19:09:40.063Z,102054.41
2023-05-26T19:14:41.619Z,102055.38
2023-05-26T19:19:43.167Z,102059.25
2023-05-26T19:24:44.833Z,102065.75
2023-05-26T19:29:46.389Z,102061.56
2023-05-26T19:34:48.164Z,102066.25
2023-05-26T19:39:49.694Z,102060.56
2023-05-26T19:44:51.236Z,102073.00
2023-05-26T19:49:52.970Z,102067.13
2023-05-26T19:54:54.500Z,102071.88
2023-05-26T19:59:56.096Z,102076.56
2023-05-26T20:04:57.628Z,102086.00
2023-05-26T20:09:59.160Z,102081.63
2023-05-26T20:15:01.918Z,102082.59
2023-05-26T20:20:12.637Z,102078.41
2023-05-26T20:25:15.356Z,102083.19
2023-05-26T20:30:16.941Z,102089.63
2023-05-26T20:35:18.696Z,102080.09
2023-05-26T20:40:20.321Z,102084.88
2023-05-26T20:45:21.865Z,102094.53
2023-05-26T20:50:23.563Z,102097.66
2023-05-26T20:55:25.583Z,102091.19
2023-05-26T21:00:27.127Z,102090.94
2023-05-26T21:05:28.696Z,102094.59
2023-05-26T21:10:30.229Z,102086.47
2023-05-26T21:15:31.860Z,102095.41
2023-05-26T21:20:33.492Z,102086.16
2023-05-26T21:25:35.041Z,102096.41
2023-05-26T21:30:36.670Z,102093.22
2023-05-26T21:35:38.276Z,102084.47
2023-05-26T21:40:39.809Z,102088.59
2023-05-26T21:45:41.350Z,102088.88
2023-05-26T21:50:42.960Z,102093.31
2023-05-26T21:55:44.539Z,102100.63
2023-05-26T22:00:46.094Z,102101.78
2023-05-26T22:05:47.713Z,102102.22
2023-05-26T22:10:49.277Z,102096.59
2023-05-26T22:15:50.845Z,102104.84
2023-05-26T22:20:52.449Z,102106.25
2023-05-26T22:25:54.401Z,102097.09
2023-05-26T22:30:57.762Z,102104.31
2023-05-26T22:35:59.462Z,102100.31
2023-05-26T22:41:01.086Z,102104.53
2023-05-26T22:46:02.636Z,102110.91
2023-05-26T22:51:04.305Z,102103.31
2023-05-26T22:56:13.534Z,102104.94
2023-05-26T23:01:15.980Z,102095.25
2023-05-26T23:06:17.651Z,102098.88
2023-05-26T23:11:19.383Z,102096.44
2023-05-26T23:16:21.066Z,102102.22
2023-05-26T23:21:22.698Z,102090.59
2023-05-26T23:26:24.299Z,102086.78
2023-05-26T23:31:25.916Z,102083.63
2023-05-26T23:36:27.619Z,102079.50
2023-05-26T23:41:29.261Z,102077.72
2023-05-26T23:46:30.930Z,102079.16
2023-05-26T23:51:32.515Z,102086.75
2023-05-26T23:56:34.204Z,102086.84
